sensor_id;sensor_type;location;lat;lon;timestamp;temperature;humidity
22742;DHT22;11538;48.884;8.696;2023-04-28T00:01:52;12.80;99.90
22742;DHT22;11538;48.884;8.696;2023-04-28T00:04:19;12.80;99.90
22742;DHT22;11538;48.884;8.696;2023-04-28T00:06:47;12.80;99.90
22742;DHT22;11538;48.884;8.696;2023-04-28T00:09:14;12.80;99.90
22742;DHT22;11538;48.884;8.696;2023-04-28T00:11:46;12.80;99.90
22742;DHT22;11538;48.884;8.696;2023-04-28T00:14:14;12.80;99.90
22742;DHT22;11538;48.884;8.696;2023-04-28T00:16:41;12.80;99.90
22742;DHT22;11538;48.884;8.696;2023-04-28T00:19:08;12.80;99.90
22742;DHT22;11538;48.884;8.696;2023-04-28T00:21:35;12.80;99.90
22742;DHT22;11538;48.884;8.696;2023-04-28T00:24:02;12.80;99.90
22742;DHT22;11538;48.884;8.696;2023-04-28T00:26:32;12.80;99.90
22742;DHT22;11538;48.884;8.696;2023-04-28T00:28:59;12.80;99.90
22742;DHT22;11538;48.884;8.696;2023-04-28T00:31:25;12.80;99.90
22742;DHT22;11538;48.884;8.696;2023-04-28T00:33:52;12.80;99.90
22742;DHT22;11538;48.884;8.696;2023-04-28T00:36:19;12.80;99.90
22742;DHT22;11538;48.884;8.696;2023-04-28T00:38:46;12.80;99.90
22742;DHT22;11538;48.884;8.696;2023-04-28T00:41:13;12.70;99.90
22742;DHT22;11538;48.884;8.696;2023-04-28T00:43:47;12.70;99.90
22742;DHT22;11538;48.884;8.696;2023-04-28T00:46:24;12.70;99.90
22742;DHT22;11538;48.884;8.696;2023-04-28T00:48:55;12.70;99.90
22742;DHT22;11538;48.884;8.696;2023-04-28T00:51:24;12.80;99.90
22742;DHT22;11538;48.884;8.696;2023-04-28T00:53:53;12.80;99.90
22742;DHT22;11538;48.884;8.696;2023-04-28T00:56:25;12.80;99.90
22742;DHT22;11538;48.884;8.696;2023-04-28T00:58:53;12.70;99.90
22742;DHT22;11538;48.884;8.696;2023-04-28T01:01:20;12.70;99.90
22742;DHT22;11538;48.884;8.696;2023-04-28T01:03:48;12.70;99.90
22742;DHT22;11538;48.884;8.696;2023-04-28T01:06:16;12.70;99.90
22742;DHT22;11538;48.884;8.696;2023-04-28T01:08:48;12.80;99.90
22742;DHT22;11538;48.884;8.696;2023-04-28T01:11:16;12.80;99.90
22742;DHT22;11538;48.884;8.696;2023-04-28T01:13:43;12.80;99.90
22742;DHT22;11538;48.884;8.696;2023-04-28T01:16:10;12.80;99.90
22742;DHT22;11538;48.884;8.696;2023-04-28T01:18:41;12.80;99.90
22742;DHT22;11538;48.884;8.696;2023-04-28T01:21:12;12.80;99.90
22742;DHT22;11538;48.884;8.696;2023-04-28T01:23:39;12.80;99.90
22742;DHT22;11538;48.884;8.696;2023-04-28T01:26:06;12.80;99.90
22742;DHT22;11538;48.884;8.696;2023-04-28T01:28:33;12.90;99.90
22742;DHT22;11538;48.884;8.696;2023-04-28T01:31:00;12.90;99.90
22742;DHT22;11538;48.884;8.696;2023-04-28T01:33:27;12.90;99.90
22742;DHT22;11538;48.884;8.696;2023-04-28T01:35:56;13.00;99.90
22742;DHT22;11538;48.884;8.696;2023-04-28T01:38:24;13.00;99.90
22742;DHT22;11538;48.884;8.696;2023-04-28T01:40:53;13.00;99.90
22742;DHT22;11538;48.884;8.696;2023-04-28T01:43:21;13.10;99.90
22742;DHT22;11538;48.884;8.696;2023-04-28T01:45:48;13.00;99.90
22742;DHT22;11538;48.884;8.696;2023-04-28T01:48:14;13.10;99.90
22742;DHT22;11538;48.884;8.696;2023-04-28T01:50:41;13.10;99.90
22742;DHT22;11538;48.884;8.696;2023-04-28T01:53:08;13.00;99.90
22742;DHT22;11538;48.884;8.696;2023-04-28T01:55:36;13.00;99.90
22742;DHT22;11538;48.884;8.696;2023-04-28T01:58:03;13.00;99.90
22742;DHT22;11538;48.884;8.696;2023-04-28T02:00:30;13.00;99.90
22742;DHT22;11538;48.884;8.696;2023-04-28T02:02:57;13.00;99.90
22742;DHT22;11538;48.884;8.696;2023-04-28T02:05:25;13.00;99.90
22742;DHT22;11538;48.884;8.696;2023-04-28T02:07:51;13.00;99.90
22742;DHT22;11538;48.884;8.696;2023-04-28T02:10:18;13.00;99.90
22742;DHT22;11538;48.884;8.696;2023-04-28T02:12:45;13.00;99.90
22742;DHT22;11538;48.884;8.696;2023-04-28T02:15:12;13.00;99.90
22742;DHT22;11538;48.884;8.696;2023-04-28T02:17:39;13.10;99.90
22742;DHT22;11538;48.884;8.696;2023-04-28T02:20:06;13.10;99.90
22742;DHT22;11538;48.884;8.696;2023-04-28T02:22:34;13.10;99.90
22742;DHT22;11538;48.884;8.696;2023-04-28T02:25:01;13.10;99.90
22742;DHT22;11538;48.884;8.696;2023-04-28T02:27:28;13.10;99.90
22742;DHT22;11538;48.884;8.696;2023-04-28T02:29:55;13.10;99.90
22742;DHT22;11538;48.884;8.696;2023-04-28T02:32:23;13.10;99.90
22742;DHT22;11538;48.884;8.696;2023-04-28T02:34:54;13.20;99.90
22742;DHT22;11538;48.884;8.696;2023-04-28T02:37:21;13.10;99.90
22742;DHT22;11538;48.884;8.696;2023-04-28T02:39:54;13.10;99.90
22742;DHT22;11538;48.884;8.696;2023-04-28T02:42:21;13.10;99.90
22742;DHT22;11538;48.884;8.696;2023-04-28T02:44:48;13.10;99.90
22742;DHT22;11538;48.884;8.696;2023-04-28T02:47:14;13.10;99.90
22742;DHT22;11538;48.884;8.696;2023-04-28T02:49:43;13.10;99.90
22742;DHT22;11538;48.884;8.696;2023-04-28T02:52:10;13.10;99.90
22742;DHT22;11538;48.884;8.696;2023-04-28T02:54:36;13.00;99.90
22742;DHT22;11538;48.884;8.696;2023-04-28T02:57:03;13.00;99.90
22742;DHT22;11538;48.884;8.696;2023-04-28T02:59:30;13.00;99.90
22742;DHT22;11538;48.884;8.696;2023-04-28T03:01:57;13.00;99.90
22742;DHT22;11538;48.884;8.696;2023-04-28T03:04:24;13.00;99.90
22742;DHT22;11538;48.884;8.696;2023-04-28T03:06:52;13.00;99.90
22742;DHT22;11538;48.884;8.696;2023-04-28T03:09:18;13.00;99.90
22742;DHT22;11538;48.884;8.696;2023-04-28T03:11:46;13.00;99.90
22742;DHT22;11538;48.884;8.696;2023-04-28T03:14:12;13.10;99.90
22742;DHT22;11538;48.884;8.696;2023-04-28T03:16:39;13.10;99.90
22742;DHT22;11538;48.884;8.696;2023-04-28T03:19:06;13.10;99.90
22742;DHT22;11538;48.884;8.696;2023-04-28T03:21:33;13.10;99.90
22742;DHT22;11538;48.884;8.696;2023-04-28T03:24:00;13.00;99.90
22742;DHT22;11538;48.884;8.696;2023-04-28T03:26:30;13.00;99.90
22742;DHT22;11538;48.884;8.696;2023-04-28T03:28:57;13.00;99.90
22742;DHT22;11538;48.884;8.696;2023-04-28T03:31:27;13.00;99.90
22742;DHT22;11538;48.884;8.696;2023-04-28T03:33:53;13.00;99.90
22742;DHT22;11538;48.884;8.696;2023-04-28T03:36:20;13.00;99.90
22742;DHT22;11538;48.884;8.696;2023-04-28T03:38:47;13.00;99.90
22742;DHT22;11538;48.884;8.696;2023-04-28T03:41:14;13.00;99.90
22742;DHT22;11538;48.884;8.696;2023-04-28T03:43:41;12.90;99.90
22742;DHT22;11538;48.884;8.696;2023-04-28T03:46:08;12.90;99.90
22742;DHT22;11538;48.884;8.696;2023-04-28T03:48:35;12.90;99.90
22742;DHT22;11538;48.884;8.696;2023-04-28T03:51:02;12.90;99.90
22742;DHT22;11538;48.884;8.696;2023-04-28T03:53:29;13.00;99.90
22742;DHT22;11538;48.884;8.696;2023-04-28T03:55:55;12.90;99.90
22742;DHT22;11538;48.884;8.696;2023-04-28T03:58:22;13.00;99.90
22742;DHT22;11538;48.884;8.696;2023-04-28T04:00:49;12.90;99.90
22742;DHT22;11538;48.884;8.696;2023-04-28T04:03:19;13.00;99.90
22742;DHT22;11538;48.884;8.696;2023-04-28T04:05:48;13.00;99.90
22742;DHT22;11538;48.884;8.696;2023-04-28T04:08:18;13.00;99.90
22742;DHT22;11538;48.884;8.696;2023-04-28T04:10:45;13.00;99.90
22742;DHT22;11538;48.884;8.696;2023-04-28T04:13:12;13.00;99.90
22742;DHT22;11538;48.884;8.696;2023-04-28T04:15:39;13.00;99.90
22742;DHT22;11538;48.884;8.696;2023-04-28T04:18:06;13.00;99.90
22742;DHT22;11538;48.884;8.696;2023-04-28T04:20:33;12.90;99.90
22742;DHT22;11538;48.884;8.696;2023-04-28T04:23:00;12.90;99.90
22742;DHT22;11538;48.884;8.696;2023-04-28T04:25:27;12.90;99.90
22742;DHT22;11538;48.884;8.696;2023-04-28T04:27:54;12.90;99.90
22742;DHT22;11538;48.884;8.696;2023-04-28T04:30:21;12.90;99.90
22742;DHT22;11538;48.884;8.696;2023-04-28T04:32:48;12.90;99.90
22742;DHT22;11538;48.884;8.696;2023-04-28T04:35:15;12.90;99.90
22742;DHT22;11538;48.884;8.696;2023-04-28T04:37:43;12.90;99.90
22742;DHT22;11538;48.884;8.696;2023-04-28T04:40:10;12.90;99.90
22742;DHT22;11538;48.884;8.696;2023-04-28T04:42:38;12.90;99.90
22742;DHT22;11538;48.884;8.696;2023-04-28T04:45:05;12.90;99.90
22742;DHT22;11538;48.884;8.696;2023-04-28T04:47:32;12.90;99.90
22742;DHT22;11538;48.884;8.696;2023-04-28T04:49:59;12.90;99.90
22742;DHT22;11538;48.884;8.696;2023-04-28T04:52:26;12.90;99.90
22742;DHT22;11538;48.884;8.696;2023-04-28T04:54:54;12.90;99.90
22742;DHT22;11538;48.884;8.696;2023-04-28T04:57:22;12.90;99.90
22742;DHT22;11538;48.884;8.696;2023-04-28T04:59:51;12.90;99.90
22742;DHT22;11538;48.884;8.696;2023-04-28T05:02:18;12.90;99.90
22742;DHT22;11538;48.884;8.696;2023-04-28T05:04:45;12.90;99.90
22742;DHT22;11538;48.884;8.696;2023-04-28T05:07:12;12.90;99.90
22742;DHT22;11538;48.884;8.696;2023-04-28T05:09:39;12.90;99.90
22742;DHT22;11538;48.884;8.696;2023-04-28T05:12:06;12.90;99.90
22742;DHT22;11538;48.884;8.696;2023-04-28T05:14:34;12.90;99.90
22742;DHT22;11538;48.884;8.696;2023-04-28T05:17:01;13.00;99.90
22742;DHT22;11538;48.884;8.696;2023-04-28T05:19:28;13.00;99.90
22742;DHT22;11538;48.884;8.696;2023-04-28T05:21:55;13.00;99.90
22742;DHT22;11538;48.884;8.696;2023-04-28T05:24:22;13.00;99.90
22742;DHT22;11538;48.884;8.696;2023-04-28T05:26:50;13.00;99.90
22742;DHT22;11538;48.884;8.696;2023-04-28T05:29:18;13.00;99.90
22742;DHT22;11538;48.884;8.696;2023-04-28T05:31:47;13.00;99.90
22742;DHT22;11538;48.884;8.696;2023-04-28T05:34:14;13.00;99.90
22742;DHT22;11538;48.884;8.696;2023-04-28T05:36:43;13.00;99.90
22742;DHT22;11538;48.884;8.696;2023-04-28T05:39:10;13.00;99.90
22742;DHT22;11538;48.884;8.696;2023-04-28T05:41:37;13.00;99.90
22742;DHT22;11538;48.884;8.696;2023-04-28T05:44:04;13.10;99.90
22742;DHT22;11538;48.884;8.696;2023-04-28T05:46:31;13.10;99.90
22742;DHT22;11538;48.884;8.696;2023-04-28T05:48:59;13.10;99.90
22742;DHT22;11538;48.884;8.696;2023-04-28T05:51:26;13.10;99.90
22742;DHT22;11538;48.884;8.696;2023-04-28T05:53:53;13.10;99.90
22742;DHT22;11538;48.884;8.696;2023-04-28T05:56:20;13.10;99.90
22742;DHT22;11538;48.884;8.696;2023-04-28T05:58:47;13.10;99.90
22742;DHT22;11538;48.884;8.696;2023-04-28T06:01:16;13.10;99.90
22742;DHT22;11538;48.884;8.696;2023-04-28T06:03:43;13.20;99.90
22742;DHT22;11538;48.884;8.696;2023-04-28T06:06:11;13.20;99.90
22742;DHT22;11538;48.884;8.696;2023-04-28T06:08:39;13.20;99.90
22742;DHT22;11538;48.884;8.696;2023-04-28T06:11:07;13.20;99.90
22742;DHT22;11538;48.884;8.696;2023-04-28T06:13:34;13.20;99.90
22742;DHT22;11538;48.884;8.696;2023-04-28T06:16:02;13.20;99.90
22742;DHT22;11538;48.884;8.696;2023-04-28T06:18:29;13.20;99.90
22742;DHT22;11538;48.884;8.696;2023-04-28T06:20:58;13.20;99.90
22742;DHT22;11538;48.884;8.696;2023-04-28T06:23:25;13.20;99.90
22742;DHT22;11538;48.884;8.696;2023-04-28T06:25:52;13.30;99.90
22742;DHT22;11538;48.884;8.696;2023-04-28T06:28:19;13.30;99.90
22742;DHT22;11538;48.884;8.696;2023-04-28T06:30:46;13.30;99.90
22742;DHT22;11538;48.884;8.696;2023-04-28T06:33:12;13.40;99.90
22742;DHT22;11538;48.884;8.696;2023-04-28T06:35:39;13.40;99.90
22742;DHT22;11538;48.884;8.696;2023-04-28T06:38:06;13.40;99.90
22742;DHT22;11538;48.884;8.696;2023-04-28T06:40:34;13.50;99.90
22742;DHT22;11538;48.884;8.696;2023-04-28T06:43:00;13.40;99.90
22742;DHT22;11538;48.884;8.696;2023-04-28T06:45:28;13.50;99.90
22742;DHT22;11538;48.884;8.696;2023-04-28T06:47:54;13.50;99.90
22742;DHT22;11538;48.884;8.696;2023-04-28T06:50:22;13.50;99.90
22742;DHT22;11538;48.884;8.696;2023-04-28T06:52:50;13.50;99.90
22742;DHT22;11538;48.884;8.696;2023-04-28T06:55:17;13.50;99.90
22742;DHT22;11538;48.884;8.696;2023-04-28T06:57:44;13.50;99.90
22742;DHT22;11538;48.884;8.696;2023-04-28T07:00:11;13.50;99.90
22742;DHT22;11538;48.884;8.696;2023-04-28T07:02:39;13.50;99.90
22742;DHT22;11538;48.884;8.696;2023-04-28T07:05:06;13.50;99.90
22742;DHT22;11538;48.884;8.696;2023-04-28T07:07:35;13.50;99.90
22742;DHT22;11538;48.884;8.696;2023-04-28T07:10:05;13.40;99.90
22742;DHT22;11538;48.884;8.696;2023-04-28T07:12:33;13.50;99.90
22742;DHT22;11538;48.884;8.696;2023-04-28T07:15:00;13.50;99.90
22742;DHT22;11538;48.884;8.696;2023-04-28T07:17:27;13.40;99.90
22742;DHT22;11538;48.884;8.696;2023-04-28T07:19:54;13.50;99.90
22742;DHT22;11538;48.884;8.696;2023-04-28T07:22:20;13.50;99.90
22742;DHT22;11538;48.884;8.696;2023-04-28T07:24:47;13.50;99.90
22742;DHT22;11538;48.884;8.696;2023-04-28T07:27:14;13.50;99.90
22742;DHT22;11538;48.884;8.696;2023-04-28T07:29:41;13.50;99.90
22742;DHT22;11538;48.884;8.696;2023-04-28T07:32:08;13.50;99.90
22742;DHT22;11538;48.884;8.696;2023-04-28T07:34:38;13.40;99.90
22742;DHT22;11538;48.884;8.696;2023-04-28T07:37:05;13.40;99.90
22742;DHT22;11538;48.884;8.696;2023-04-28T07:39:33;13.30;99.90
22742;DHT22;11538;48.884;8.696;2023-04-28T07:42:01;13.30;99.90
22742;DHT22;11538;48.884;8.696;2023-04-28T07:44:29;13.20;99.90
22742;DHT22;11538;48.884;8.696;2023-04-28T07:46:58;13.20;99.90
22742;DHT22;11538;48.884;8.696;2023-04-28T07:49:29;13.10;99.90
22742;DHT22;11538;48.884;8.696;2023-04-28T07:51:57;13.10;99.90
22742;DHT22;11538;48.884;8.696;2023-04-28T07:54:24;13.00;99.90
22742;DHT22;11538;48.884;8.696;2023-04-28T07:56:51;12.90;99.90
22742;DHT22;11538;48.884;8.696;2023-04-28T07:59:18;12.90;99.90
22742;DHT22;11538;48.884;8.696;2023-04-28T08:01:44;12.90;99.90
22742;DHT22;11538;48.884;8.696;2023-04-28T08:04:12;12.80;99.90
22742;DHT22;11538;48.884;8.696;2023-04-28T08:06:39;12.80;99.90
22742;DHT22;11538;48.884;8.696;2023-04-28T08:09:06;12.80;99.90
22742;DHT22;11538;48.884;8.696;2023-04-28T08:11:33;12.80;99.90
22742;DHT22;11538;48.884;8.696;2023-04-28T08:14:19;12.90;99.90
22742;DHT22;11538;48.884;8.696;2023-04-28T08:17:05;12.90;99.90
22742;DHT22;11538;48.884;8.696;2023-04-28T08:19:32;12.90;99.90
22742;DHT22;11538;48.884;8.696;2023-04-28T08:21:59;12.90;99.90
22742;DHT22;11538;48.884;8.696;2023-04-28T08:24:31;12.90;99.90
22742;DHT22;11538;48.884;8.696;2023-04-28T08:27:01;12.90;99.90
22742;DHT22;11538;48.884;8.696;2023-04-28T08:29:32;13.00;99.90
22742;DHT22;11538;48.884;8.696;2023-04-28T08:31:59;13.00;99.90
22742;DHT22;11538;48.884;8.696;2023-04-28T08:34:28;13.10;99.90
22742;DHT22;11538;48.884;8.696;2023-04-28T08:36:55;13.10;99.90
22742;DHT22;11538;48.884;8.696;2023-04-28T08:39:22;13.10;99.90
22742;DHT22;11538;48.884;8.696;2023-04-28T08:41:52;13.20;99.90
22742;DHT22;11538;48.884;8.696;2023-04-28T08:44:19;13.30;99.90
22742;DHT22;11538;48.884;8.696;2023-04-28T08:46:48;13.30;99.90
22742;DHT22;11538;48.884;8.696;2023-04-28T08:49:22;13.30;99.90
22742;DHT22;11538;48.884;8.696;2023-04-28T08:51:59;13.40;99.90
22742;DHT22;11538;48.884;8.696;2023-04-28T08:54:35;13.40;99.90
22742;DHT22;11538;48.884;8.696;2023-04-28T08:57:06;13.40;99.90
22742;DHT22;11538;48.884;8.696;2023-04-28T08:59:39;13.40;99.90
22742;DHT22;11538;48.884;8.696;2023-04-28T09:02:07;13.40;99.90
22742;DHT22;11538;48.884;8.696;2023-04-28T09:04:35;13.40;99.90
22742;DHT22;11538;48.884;8.696;2023-04-28T09:07:03;13.50;99.90
22742;DHT22;11538;48.884;8.696;2023-04-28T09:09:35;13.50;99.90
22742;DHT22;11538;48.884;8.696;2023-04-28T09:12:05;13.60;99.90
22742;DHT22;11538;48.884;8.696;2023-04-28T09:14:34;13.60;99.90
22742;DHT22;11538;48.884;8.696;2023-04-28T09:17:11;13.70;99.90
22742;DHT22;11538;48.884;8.696;2023-04-28T09:19:40;13.80;99.90
22742;DHT22;11538;48.884;8.696;2023-04-28T09:22:09;13.80;99.90
22742;DHT22;11538;48.884;8.696;2023-04-28T09:24:52;13.90;99.90
22742;DHT22;11538;48.884;8.696;2023-04-28T09:27:26;14.00;99.90
22742;DHT22;11538;48.884;8.696;2023-04-28T09:29:54;14.00;99.90
22742;DHT22;11538;48.884;8.696;2023-04-28T09:32:21;14.10;99.90
22742;DHT22;11538;48.884;8.696;2023-04-28T09:34:54;14.20;99.90
22742;DHT22;11538;48.884;8.696;2023-04-28T09:37:26;14.20;99.90
22742;DHT22;11538;48.884;8.696;2023-04-28T09:40:01;14.30;99.90
22742;DHT22;11538;48.884;8.696;2023-04-28T09:42:39;14.40;99.90
22742;DHT22;11538;48.884;8.696;2023-04-28T09:45:12;14.40;99.90
22742;DHT22;11538;48.884;8.696;2023-04-28T09:47:42;14.60;99.90
22742;DHT22;11538;48.884;8.696;2023-04-28T09:50:16;14.70;99.90
22742;DHT22;11538;48.884;8.696;2023-04-28T09:52:54;14.90;99.90
22742;DHT22;11538;48.884;8.696;2023-04-28T09:55:23;15.10;99.90
22742;DHT22;11538;48.884;8.696;2023-04-28T09:57:53;15.30;99.90
22742;DHT22;11538;48.884;8.696;2023-04-28T10:00:21;15.50;99.90
22742;DHT22;11538;48.884;8.696;2023-04-28T10:02:50;15.60;99.90
22742;DHT22;11538;48.884;8.696;2023-04-28T10:05:18;15.70;99.90
22742;DHT22;11538;48.884;8.696;2023-04-28T10:07:48;15.80;99.90
22742;DHT22;11538;48.884;8.696;2023-04-28T10:10:15;15.90;99.90
22742;DHT22;11538;48.884;8.696;2023-04-28T10:12:43;15.90;99.90
22742;DHT22;11538;48.884;8.696;2023-04-28T10:15:12;16.10;99.90
22742;DHT22;11538;48.884;8.696;2023-04-28T10:17:39;16.20;99.90
22742;DHT22;11538;48.884;8.696;2023-04-28T10:20:08;16.30;99.90
22742;DHT22;11538;48.884;8.696;2023-04-28T10:25:57;16.70;99.90
22742;DHT22;11538;48.884;8.696;2023-04-28T10:28:28;16.90;99.90
22742;DHT22;11538;48.884;8.696;2023-04-28T10:31:15;17.10;99.90
22742;DHT22;11538;48.884;8.696;2023-04-28T10:33:47;17.20;99.90
22742;DHT22;11538;48.884;8.696;2023-04-28T10:36:49;17.40;99.90
22742;DHT22;11538;48.884;8.696;2023-04-28T10:39:20;17.50;99.90
22742;DHT22;11538;48.884;8.696;2023-04-28T10:41:48;17.60;99.90
22742;DHT22;11538;48.884;8.696;2023-04-28T10:44:40;17.70;99.90
22742;DHT22;11538;48.884;8.696;2023-04-28T10:47:08;17.70;99.90
22742;DHT22;11538;48.884;8.696;2023-04-28T10:50:08;17.80;99.90
22742;DHT22;11538;48.884;8.696;2023-04-28T11:00:42;18.40;99.90
22742;DHT22;11538;48.884;8.696;2023-04-28T11:09:02;18.60;99.90
22742;DHT22;11538;48.884;8.696;2023-04-28T11:14:34;18.70;99.90
22742;DHT22;11538;48.884;8.696;2023-04-28T11:17:04;18.80;99.90
22742;DHT22;11538;48.884;8.696;2023-04-28T11:19:39;18.90;99.90
22742;DHT22;11538;48.884;8.696;2023-04-28T11:24:59;19.10;99.90
22742;DHT22;11538;48.884;8.696;2023-04-28T11:27:31;19.10;99.90
22742;DHT22;11538;48.884;8.696;2023-04-28T11:29:59;19.20;99.90
22742;DHT22;11538;48.884;8.696;2023-04-28T11:32:33;19.30;99.90
22742;DHT22;11538;48.884;8.696;2023-04-28T11:35:00;19.40;99.90
22742;DHT22;11538;48.884;8.696;2023-04-28T11:37:30;19.40;99.90
22742;DHT22;11538;48.884;8.696;2023-04-28T11:39:57;19.30;99.90
22742;DHT22;11538;48.884;8.696;2023-04-28T11:42:24;19.40;99.90
22742;DHT22;11538;48.884;8.696;2023-04-28T11:44:53;19.50;99.90
22742;DHT22;11538;48.884;8.696;2023-04-28T11:47:31;19.80;99.90
22742;DHT22;11538;48.884;8.696;2023-04-28T11:50:00;19.90;99.90
22742;DHT22;11538;48.884;8.696;2023-04-28T11:52:28;20.00;99.90
22742;DHT22;11538;48.884;8.696;2023-04-28T11:54:56;20.00;99.90
22742;DHT22;11538;48.884;8.696;2023-04-28T11:57:26;19.90;99.90
22742;DHT22;11538;48.884;8.696;2023-04-28T12:00:13;19.80;99.90
22742;DHT22;11538;48.884;8.696;2023-04-28T12:02:45;19.70;99.90
22742;DHT22;11538;48.884;8.696;2023-04-28T12:05:12;19.70;99.90
22742;DHT22;11538;48.884;8.696;2023-04-28T12:07:40;19.70;99.90
22742;DHT22;11538;48.884;8.696;2023-04-28T12:10:13;19.70;99.90
22742;DHT22;11538;48.884;8.696;2023-04-28T12:12:45;19.70;99.90
22742;DHT22;11538;48.884;8.696;2023-04-28T12:15:15;19.70;99.90
22742;DHT22;11538;48.884;8.696;2023-04-28T12:17:46;19.70;99.90
22742;DHT22;11538;48.884;8.696;2023-04-28T12:20:37;19.70;99.90
22742;DHT22;11538;48.884;8.696;2023-04-28T12:23:05;19.60;99.90
22742;DHT22;11538;48.884;8.696;2023-04-28T12:25:44;19.40;99.90
22742;DHT22;11538;48.884;8.696;2023-04-28T12:28:13;19.30;99.90
22742;DHT22;11538;48.884;8.696;2023-04-28T12:30:43;19.20;99.90
22742;DHT22;11538;48.884;8.696;2023-04-28T12:33:23;19.10;99.90
22742;DHT22;11538;48.884;8.696;2023-04-28T12:35:52;18.90;99.90
22742;DHT22;11538;48.884;8.696;2023-04-28T12:38:23;18.90;99.90
22742;DHT22;11538;48.884;8.696;2023-04-28T12:40:51;18.80;99.90
22742;DHT22;11538;48.884;8.696;2023-04-28T12:43:18;18.80;99.90
22742;DHT22;11538;48.884;8.696;2023-04-28T12:45:46;18.70;99.90
22742;DHT22;11538;48.884;8.696;2023-04-28T12:48:13;18.60;99.90
22742;DHT22;11538;48.884;8.696;2023-04-28T12:50:42;18.60;99.90
22742;DHT22;11538;48.884;8.696;2023-04-28T12:53:09;18.50;99.90
22742;DHT22;11538;48.884;8.696;2023-04-28T12:55:36;18.50;99.90
22742;DHT22;11538;48.884;8.696;2023-04-28T12:58:05;18.50;99.90
22742;DHT22;11538;48.884;8.696;2023-04-28T13:00:32;18.60;99.90
22742;DHT22;11538;48.884;8.696;2023-04-28T13:02:59;18.80;99.90
22742;DHT22;11538;48.884;8.696;2023-04-28T13:05:26;18.90;99.90
22742;DHT22;11538;48.884;8.696;2023-04-28T13:07:54;19.20;99.90
22742;DHT22;11538;48.884;8.696;2023-04-28T13:10:21;19.70;99.90
22742;DHT22;11538;48.884;8.696;2023-04-28T13:12:48;19.90;99.90
22742;DHT22;11538;48.884;8.696;2023-04-28T13:15:16;19.90;99.90
22742;DHT22;11538;48.884;8.696;2023-04-28T13:17:43;19.90;99.90
22742;DHT22;11538;48.884;8.696;2023-04-28T13:20:11;19.80;99.90
22742;DHT22;11538;48.884;8.696;2023-04-28T13:22:38;19.60;99.90
22742;DHT22;11538;48.884;8.696;2023-04-28T13:25:06;19.50;99.90
22742;DHT22;11538;48.884;8.696;2023-04-28T13:27:33;19.40;99.90
22742;DHT22;11538;48.884;8.696;2023-04-28T13:30:01;19.20;99.90
22742;DHT22;11538;48.884;8.696;2023-04-28T13:32:30;19.10;99.90
22742;DHT22;11538;48.884;8.696;2023-04-28T13:34:58;19.00;99.90
22742;DHT22;11538;48.884;8.696;2023-04-28T13:37:25;18.90;99.90
22742;DHT22;11538;48.884;8.696;2023-04-28T13:39:52;18.80;99.90
22742;DHT22;11538;48.884;8.696;2023-04-28T13:42:19;18.70;99.90
22742;DHT22;11538;48.884;8.696;2023-04-28T13:44:45;18.60;99.90
22742;DHT22;11538;48.884;8.696;2023-04-28T13:47:14;18.50;99.90
22742;DHT22;11538;48.884;8.696;2023-04-28T13:49:41;18.40;99.90
22742;DHT22;11538;48.884;8.696;2023-04-28T13:52:08;18.30;99.90
22742;DHT22;11538;48.884;8.696;2023-04-28T13:54:35;18.20;99.90
22742;DHT22;11538;48.884;8.696;2023-04-28T13:57:03;18.10;99.90
22742;DHT22;11538;48.884;8.696;2023-04-28T13:59:30;18.00;99.90
22742;DHT22;11538;48.884;8.696;2023-04-28T14:01:57;17.90;99.90
22742;DHT22;11538;48.884;8.696;2023-04-28T14:04:24;17.70;99.90
22742;DHT22;11538;48.884;8.696;2023-04-28T14:06:52;17.60;99.90
22742;DHT22;11538;48.884;8.696;2023-04-28T14:09:19;17.60;99.90
22742;DHT22;11538;48.884;8.696;2023-04-28T14:11:46;17.60;99.90
22742;DHT22;11538;48.884;8.696;2023-04-28T14:14:13;17.60;99.90
22742;DHT22;11538;48.884;8.696;2023-04-28T14:16:40;17.60;99.90
22742;DHT22;11538;48.884;8.696;2023-04-28T14:19:07;17.60;99.90
22742;DHT22;11538;48.884;8.696;2023-04-28T14:21:35;17.60;99.90
22742;DHT22;11538;48.884;8.696;2023-04-28T14:24:02;17.60;99.90
22742;DHT22;11538;48.884;8.696;2023-04-28T14:26:29;17.60;99.90
22742;DHT22;11538;48.884;8.696;2023-04-28T14:28:56;17.70;99.90
22742;DHT22;11538;48.884;8.696;2023-04-28T14:31:23;17.80;99.90
22742;DHT22;11538;48.884;8.696;2023-04-28T14:33:50;17.80;99.90
22742;DHT22;11538;48.884;8.696;2023-04-28T14:36:17;17.90;99.90
22742;DHT22;11538;48.884;8.696;2023-04-28T14:38:44;17.90;99.90
22742;DHT22;11538;48.884;8.696;2023-04-28T14:41:11;17.90;99.90
22742;DHT22;11538;48.884;8.696;2023-04-28T14:43:38;18.00;99.90
22742;DHT22;11538;48.884;8.696;2023-04-28T14:46:07;18.00;99.90
22742;DHT22;11538;48.884;8.696;2023-04-28T14:48:36;18.10;99.90
22742;DHT22;11538;48.884;8.696;2023-04-28T14:51:03;18.10;99.90
22742;DHT22;11538;48.884;8.696;2023-04-28T14:53:31;18.10;99.90
22742;DHT22;11538;48.884;8.696;2023-04-28T14:55:57;18.20;99.90
22742;DHT22;11538;48.884;8.696;2023-04-28T14:58:42;18.30;99.90
22742;DHT22;11538;48.884;8.696;2023-04-28T15:01:09;18.40;99.90
22742;DHT22;11538;48.884;8.696;2023-04-28T15:03:38;18.40;99.90
22742;DHT22;11538;48.884;8.696;2023-04-28T15:06:06;18.50;99.90
22742;DHT22;11538;48.884;8.696;2023-04-28T15:08:33;18.60;99.90
22742;DHT22;11538;48.884;8.696;2023-04-28T15:11:02;18.70;99.90
22742;DHT22;11538;48.884;8.696;2023-04-28T15:13:29;18.80;99.90
22742;DHT22;11538;48.884;8.696;2023-04-28T15:15:57;18.90;99.90
22742;DHT22;11538;48.884;8.696;2023-04-28T15:18:24;19.00;99.90
22742;DHT22;11538;48.884;8.696;2023-04-28T15:20:52;19.00;99.90
22742;DHT22;11538;48.884;8.696;2023-04-28T15:23:18;19.00;99.90
22742;DHT22;11538;48.884;8.696;2023-04-28T15:25:45;18.90;99.90
22742;DHT22;11538;48.884;8.696;2023-04-28T15:28:13;18.80;99.90
22742;DHT22;11538;48.884;8.696;2023-04-28T15:30:43;18.80;99.90
22742;DHT22;11538;48.884;8.696;2023-04-28T15:33:10;18.70;99.90
22742;DHT22;11538;48.884;8.696;2023-04-28T15:35:43;18.60;99.90
22742;DHT22;11538;48.884;8.696;2023-04-28T15:38:11;18.50;99.90
22742;DHT22;11538;48.884;8.696;2023-04-28T15:40:39;18.50;99.90
22742;DHT22;11538;48.884;8.696;2023-04-28T15:43:07;18.40;99.90
22742;DHT22;11538;48.884;8.696;2023-04-28T15:45:34;18.40;99.90
22742;DHT22;11538;48.884;8.696;2023-04-28T15:48:03;18.30;99.90
22742;DHT22;11538;48.884;8.696;2023-04-28T15:50:32;18.30;99.90
22742;DHT22;11538;48.884;8.696;2023-04-28T15:52:59;18.30;99.90
22742;DHT22;11538;48.884;8.696;2023-04-28T15:55:25;18.20;99.90
22742;DHT22;11538;48.884;8.696;2023-04-28T15:57:53;18.10;99.90
22742;DHT22;11538;48.884;8.696;2023-04-28T16:00:19;18.10;99.90
22742;DHT22;11538;48.884;8.696;2023-04-28T16:02:47;18.00;99.90